Columbus, IN

3:15 AM EST on March 05, 2015 (GMT -0500)
Monroe County | Change Station
CLOSE
Current Station
Airport
Location: Bloomington,
Elevation: 846 ft
Nearby Weather Stations
Active Advisory: Winter Weather Advisory

Elev 846 ft 39.15 °N, 86.62 °W | Updated 22 minutes ago

Mostly Cloudy
Mostly Cloudy
18 °F
Feels Like 5 °F
N
13
Wind Variable Wind from North

Today
High -- | Low -- °F
--% Chance of Precip.
Yesterday
High -- | Low -- °F
Precip. -- in
7:10 AM 6:40 PM
Full, 100% visible
Pressure 30.32 in
Visibility 10.0 miles
Clouds Mostly Cloudy 11000 ft
Windchill 5 °F
Dew Point 9 °F
Humidity 68%
Rainfall 0.00 in
Snow Depth Not available.
UV 0 out of 12
Pollen .70 out of 12
Air Quality Not available.
Flu Activity Not available.
METAR KBMG 050753Z 35011KT 10SM BKN110 M08/M13 A3029 RMK AO2 SLP268 T10781128 $

More Conditions Fewer Conditions

Pressure 30.32 in
Visibility 10.0 miles
Clouds Mostly Cloudy 11000 ft
Windchill 5 °F
Dew Point 9 °F
Humidity 68%
Rainfall 0.00 in
Snow Depth Not available.
UV 0 out of 12
Pollen .70 out of 12
Air Quality Not available.
Flu Activity Not available.
METAR KBMG 050753Z 35011KT 10SM BKN110 M08/M13 A3029 RMK AO2 SLP268 T10781128 $

More Conditions Fewer Conditions

10-Day Weather Forecast

Almanac

Astronomy

Mar. 05, 2015 Rise Set
Actual Time
Civil Twilight
Nautical Twilight
Astronomical Twilight
Moon
Length of Visible Light
Length of Day
Tomorrow will be .
, % of the Moon is Illuminated

Today's Extremes

State Highs State Lows

Community

WunderPhotos

Upload Photos

1,802,704 photos uploaded!

WunderBlogs® & News

Nearby

Air Quality

  Air Quality AQ Index Pollutant
Not available.

Snow Depth

Station Depth Elevation

Earthquake Activity

City Distance Mag. Time & Date
Minimum magnitude displayed is 2.5.

Coastal Water Temperatures

Place Temperature

Nearby Weather Stations

Winter Weather Advisory
Statement as of 9:34 PM EST on March 04, 2015

... Winter Weather Advisory remains in effect until 9 am EST
Thursday...

A Winter Weather Advisory remains in effect until 9 am EST
Thursday.

* Main impact: accumulating snow may make travel difficult at
times especially overnight into early Thursday morning.

* Accumulations: 2 to 4 inches are expected by Thursday morning.
Areas from Brownstown and Seymour east through North Vernon
may approach 4 inches. 1 to 3 inches are expected in the
Bloomington and Columbus areas.

* Timing: snow is expected to taper off overnight.

Precautionary/preparedness actions...

A Winter Weather Advisory for snow means that periods of snow
will cause primarily travel difficulties. Be prepared for snow
covered roads and limited visibilities... and use caution while
driving.